sensor_id;sensor_type;location;lat;lon;timestamp;P1;durP1;ratioP1;P2;durP2;ratioP2
4466;SDS011;2246;42.664;23.278;2023-06-01T00:01:23;10.77;;;7.22;;
4466;SDS011;2246;42.664;23.278;2023-06-01T00:03:49;9.45;;;6.75;;
4466;SDS011;2246;42.664;23.278;2023-06-01T00:06:16;13.60;;;6.85;;
4466;SDS011;2246;42.664;23.278;2023-06-01T00:08:42;12.70;;;6.38;;
4466;SDS011;2246;42.664;23.278;2023-06-01T00:11:08;9.88;;;6.50;;
4466;SDS011;2246;42.664;23.278;2023-06-01T00:13:34;12.38;;;6.30;;
4466;SDS011;2246;42.664;23.278;2023-06-01T00:16:00;14.88;;;6.60;;
4466;SDS011;2246;42.664;23.278;2023-06-01T00:18:26;11.98;;;7.07;;
4466;SDS011;2246;42.664;23.278;2023-06-01T00:20:52;9.95;;;6.43;;
4466;SDS011;2246;42.664;23.278;2023-06-01T00:23:19;11.50;;;5.43;;
4466;SDS011;2246;42.664;23.278;2023-06-01T00:25:46;9.35;;;5.90;;
4466;SDS011;2246;42.664;23.278;2023-06-01T00:28:12;12.38;;;6.35;;
4466;SDS011;2246;42.664;23.278;2023-06-01T00:30:39;11.00;;;5.75;;
4466;SDS011;2246;42.664;23.278;2023-06-01T00:33:05;11.07;;;5.90;;
4466;SDS011;2246;42.664;23.278;2023-06-01T00:35:32;9.55;;;5.97;;
4466;SDS011;2246;42.664;23.278;2023-06-01T00:37:58;11.95;;;6.05;;
4466;SDS011;2246;42.664;23.278;2023-06-01T00:40:24;12.13;;;6.35;;
4466;SDS011;2246;42.664;23.278;2023-06-01T00:42:50;12.95;;;6.70;;
4466;SDS011;2246;42.664;23.278;2023-06-01T00:45:16;14.05;;;6.85;;
4466;SDS011;2246;42.664;23.278;2023-06-01T00:47:42;10.48;;;6.30;;
4466;SDS011;2246;42.664;23.278;2023-06-01T00:50:11;11.25;;;6.38;;
4466;SDS011;2246;42.664;23.278;2023-06-01T00:52:38;9.95;;;6.50;;
4466;SDS011;2246;42.664;23.278;2023-06-01T00:55:05;13.30;;;7.28;;
4466;SDS011;2246;42.664;23.278;2023-06-01T00:57:31;17.90;;;6.60;;
4466;SDS011;2246;42.664;23.278;2023-06-01T00:59:58;15.15;;;7.05;;
4466;SDS011;2246;42.664;23.278;2023-06-01T01:02:24;9.18;;;6.47;;
4466;SDS011;2246;42.664;23.278;2023-06-01T01:04:50;11.07;;;7.03;;
4466;SDS011;2246;42.664;23.278;2023-06-01T01:07:31;9.80;;;6.53;;
4466;SDS011;2246;42.664;23.278;2023-06-01T01:10:04;14.63;;;6.63;;
4466;SDS011;2246;42.664;23.278;2023-06-01T01:17:49;11.23;;;6.47;;
4466;SDS011;2246;42.664;23.278;2023-06-01T01:20:22;12.45;;;7.13;;
4466;SDS011;2246;42.664;23.278;2023-06-01T01:25:39;12.52;;;6.78;;
4466;SDS011;2246;42.664;23.278;2023-06-01T01:29:00;11.93;;;7.82;;
4466;SDS011;2246;42.664;23.278;2023-06-01T01:31:01;13.52;;;7.30;;
4466;SDS011;2246;42.664;23.278;2023-06-01T01:33:27;13.50;;;7.35;;
4466;SDS011;2246;42.664;23.278;2023-06-01T01:35:54;8.90;;;6.10;;
4466;SDS011;2246;42.664;23.278;2023-06-01T01:38:21;8.95;;;6.22;;
4466;SDS011;2246;42.664;23.278;2023-06-01T01:40:47;12.18;;;6.57;;
4466;SDS011;2246;42.664;23.278;2023-06-01T01:43:14;11.05;;;6.53;;
4466;SDS011;2246;42.664;23.278;2023-06-01T01:45:41;11.30;;;6.40;;
4466;SDS011;2246;42.664;23.278;2023-06-01T01:48:10;15.27;;;7.50;;
4466;SDS011;2246;42.664;23.278;2023-06-01T01:50:37;10.60;;;6.68;;
4466;SDS011;2246;42.664;23.278;2023-06-01T01:53:05;11.98;;;7.10;;
4466;SDS011;2246;42.664;23.278;2023-06-01T01:55:32;8.00;;;6.05;;
4466;SDS011;2246;42.664;23.278;2023-06-01T01:57:59;11.95;;;6.75;;
4466;SDS011;2246;42.664;23.278;2023-06-01T02:00:27;12.68;;;6.68;;
4466;SDS011;2246;42.664;23.278;2023-06-01T02:02:53;13.48;;;6.72;;
4466;SDS011;2246;42.664;23.278;2023-06-01T02:05:19;11.18;;;6.93;;
4466;SDS011;2246;42.664;23.278;2023-06-01T02:07:45;11.60;;;6.97;;
4466;SDS011;2246;42.664;23.278;2023-06-01T02:10:11;11.00;;;7.57;;
4466;SDS011;2246;42.664;23.278;2023-06-01T02:12:37;10.20;;;6.78;;
4466;SDS011;2246;42.664;23.278;2023-06-01T02:15:04;13.32;;;6.95;;
4466;SDS011;2246;42.664;23.278;2023-06-01T02:17:30;10.75;;;7.18;;
4466;SDS011;2246;42.664;23.278;2023-06-01T02:19:58;12.02;;;6.72;;
4466;SDS011;2246;42.664;23.278;2023-06-01T02:24:56;12.88;;;7.60;;
4466;SDS011;2246;42.664;23.278;2023-06-01T02:27:23;11.18;;;7.60;;
4466;SDS011;2246;42.664;23.278;2023-06-01T02:29:49;9.52;;;6.55;;
4466;SDS011;2246;42.664;23.278;2023-06-01T02:32:15;12.80;;;6.78;;
4466;SDS011;2246;42.664;23.278;2023-06-01T02:34:41;10.07;;;6.97;;
4466;SDS011;2246;42.664;23.278;2023-06-01T02:37:07;12.50;;;7.07;;
4466;SDS011;2246;42.664;23.278;2023-06-01T02:39:33;9.77;;;6.78;;
4466;SDS011;2246;42.664;23.278;2023-06-01T02:41:59;11.82;;;6.63;;
4466;SDS011;2246;42.664;23.278;2023-06-01T02:44:25;15.45;;;9.15;;
4466;SDS011;2246;42.664;23.278;2023-06-01T02:46:51;17.33;;;9.88;;
4466;SDS011;2246;42.664;23.278;2023-06-01T02:49:18;16.05;;;8.10;;
4466;SDS011;2246;42.664;23.278;2023-06-01T02:51:44;14.20;;;7.35;;
4466;SDS011;2246;42.664;23.278;2023-06-01T02:54:10;9.65;;;6.75;;
4466;SDS011;2246;42.664;23.278;2023-06-01T02:56:36;13.30;;;7.00;;
4466;SDS011;2246;42.664;23.278;2023-06-01T02:59:02;11.05;;;6.45;;
4466;SDS011;2246;42.664;23.278;2023-06-01T03:01:28;10.05;;;6.60;;
4466;SDS011;2246;42.664;23.278;2023-06-01T03:04:00;13.95;;;7.65;;
4466;SDS011;2246;42.664;23.278;2023-06-01T03:06:28;13.55;;;7.40;;
4466;SDS011;2246;42.664;23.278;2023-06-01T03:11:22;19.13;;;7.68;;
4466;SDS011;2246;42.664;23.278;2023-06-01T03:13:48;11.05;;;7.20;;
4466;SDS011;2246;42.664;23.278;2023-06-01T03:16:15;9.55;;;6.07;;
4466;SDS011;2246;42.664;23.278;2023-06-01T03:18:41;11.23;;;6.47;;
4466;SDS011;2246;42.664;23.278;2023-06-01T03:21:07;11.95;;;7.10;;
4466;SDS011;2246;42.664;23.278;2023-06-01T03:23:33;14.77;;;7.97;;
4466;SDS011;2246;42.664;23.278;2023-06-01T03:25:59;12.10;;;7.38;;
4466;SDS011;2246;42.664;23.278;2023-06-01T03:28:29;11.82;;;7.15;;
4466;SDS011;2246;42.664;23.278;2023-06-01T03:30:55;16.33;;;7.50;;
4466;SDS011;2246;42.664;23.278;2023-06-01T03:33:21;12.95;;;7.68;;
4466;SDS011;2246;42.664;23.278;2023-06-01T03:35:47;15.75;;;7.93;;
4466;SDS011;2246;42.664;23.278;2023-06-01T03:38:14;15.75;;;8.57;;
4466;SDS011;2246;42.664;23.278;2023-06-01T03:40:40;15.65;;;8.32;;
4466;SDS011;2246;42.664;23.278;2023-06-01T03:43:06;20.50;;;7.97;;
4466;SDS011;2246;42.664;23.278;2023-06-01T03:45:33;15.55;;;7.80;;
4466;SDS011;2246;42.664;23.278;2023-06-01T03:47:59;14.95;;;7.72;;
4466;SDS011;2246;42.664;23.278;2023-06-01T03:50:25;14.93;;;8.60;;
4466;SDS011;2246;42.664;23.278;2023-06-01T03:52:51;27.35;;;13.23;;
4466;SDS011;2246;42.664;23.278;2023-06-01T03:55:17;10.85;;;7.60;;
4466;SDS011;2246;42.664;23.278;2023-06-01T03:57:44;18.00;;;7.70;;
4466;SDS011;2246;42.664;23.278;2023-06-01T04:00:10;10.90;;;7.50;;
4466;SDS011;2246;42.664;23.278;2023-06-01T04:02:50;11.75;;;7.47;;
4466;SDS011;2246;42.664;23.278;2023-06-01T04:05:17;22.35;;;7.80;;
4466;SDS011;2246;42.664;23.278;2023-06-01T04:07:46;14.20;;;7.50;;
4466;SDS011;2246;42.664;23.278;2023-06-01T04:10:13;13.73;;;7.45;;
4466;SDS011;2246;42.664;23.278;2023-06-01T04:12:40;16.63;;;8.63;;
4466;SDS011;2246;42.664;23.278;2023-06-01T04:15:09;13.45;;;8.35;;
4466;SDS011;2246;42.664;23.278;2023-06-01T04:17:39;14.32;;;8.20;;
4466;SDS011;2246;42.664;23.278;2023-06-01T04:20:05;11.30;;;8.45;;
4466;SDS011;2246;42.664;23.278;2023-06-01T04:22:32;14.23;;;8.50;;
4466;SDS011;2246;42.664;23.278;2023-06-01T04:24:59;16.63;;;7.88;;
4466;SDS011;2246;42.664;23.278;2023-06-01T04:27:25;18.52;;;9.38;;
4466;SDS011;2246;42.664;23.278;2023-06-01T04:29:52;15.30;;;8.93;;
4466;SDS011;2246;42.664;23.278;2023-06-01T04:32:18;13.25;;;8.40;;
4466;SDS011;2246;42.664;23.278;2023-06-01T04:34:49;17.67;;;9.50;;
4466;SDS011;2246;42.664;23.278;2023-06-01T04:37:16;19.70;;;9.63;;
4466;SDS011;2246;42.664;23.278;2023-06-01T04:39:46;16.52;;;9.73;;
4466;SDS011;2246;42.664;23.278;2023-06-01T04:42:16;14.32;;;9.40;;
4466;SDS011;2246;42.664;23.278;2023-06-01T04:44:43;18.02;;;11.20;;
4466;SDS011;2246;42.664;23.278;2023-06-01T04:47:12;17.27;;;10.00;;
4466;SDS011;2246;42.664;23.278;2023-06-01T04:49:40;20.70;;;11.00;;
4466;SDS011;2246;42.664;23.278;2023-06-01T04:52:07;20.50;;;10.73;;
4466;SDS011;2246;42.664;23.278;2023-06-01T04:54:35;16.55;;;10.30;;
4466;SDS011;2246;42.664;23.278;2023-06-01T04:57:01;18.63;;;10.70;;
4466;SDS011;2246;42.664;23.278;2023-06-01T04:59:27;28.40;;;12.32;;
4466;SDS011;2246;42.664;23.278;2023-06-01T05:01:53;24.30;;;10.30;;
4466;SDS011;2246;42.664;23.278;2023-06-01T05:04:19;16.27;;;9.68;;
4466;SDS011;2246;42.664;23.278;2023-06-01T05:06:46;21.13;;;10.50;;
4466;SDS011;2246;42.664;23.278;2023-06-01T05:09:12;22.27;;;12.20;;
4466;SDS011;2246;42.664;23.278;2023-06-01T05:11:38;26.27;;;13.20;;
4466;SDS011;2246;42.664;23.278;2023-06-01T05:14:04;21.52;;;11.93;;
4466;SDS011;2246;42.664;23.278;2023-06-01T05:16:30;15.52;;;10.05;;
4466;SDS011;2246;42.664;23.278;2023-06-01T05:18:56;19.08;;;10.15;;
4466;SDS011;2246;42.664;23.278;2023-06-01T05:21:23;15.00;;;9.70;;
4466;SDS011;2246;42.664;23.278;2023-06-01T05:23:49;14.95;;;9.57;;
4466;SDS011;2246;42.664;23.278;2023-06-01T05:26:15;16.05;;;9.93;;
4466;SDS011;2246;42.664;23.278;2023-06-01T05:28:41;17.42;;;9.73;;
4466;SDS011;2246;42.664;23.278;2023-06-01T05:31:07;21.65;;;10.30;;
4466;SDS011;2246;42.664;23.278;2023-06-01T05:33:34;18.48;;;10.63;;
4466;SDS011;2246;42.664;23.278;2023-06-01T05:36:01;16.52;;;11.35;;
4466;SDS011;2246;42.664;23.278;2023-06-01T05:38:28;23.67;;;12.32;;
4466;SDS011;2246;42.664;23.278;2023-06-01T05:40:54;23.45;;;12.02;;
4466;SDS011;2246;42.664;23.278;2023-06-01T05:43:20;19.48;;;12.55;;
4466;SDS011;2246;42.664;23.278;2023-06-01T05:45:46;17.45;;;11.52;;
4466;SDS011;2246;42.664;23.278;2023-06-01T05:48:13;28.55;;;13.02;;
4466;SDS011;2246;42.664;23.278;2023-06-01T05:50:40;21.67;;;12.63;;
4466;SDS011;2246;42.664;23.278;2023-06-01T05:53:07;23.67;;;13.98;;
4466;SDS011;2246;42.664;23.278;2023-06-01T05:55:33;24.48;;;13.55;;
4466;SDS011;2246;42.664;23.278;2023-06-01T05:57:59;21.30;;;13.85;;
4466;SDS011;2246;42.664;23.278;2023-06-01T06:00:25;22.02;;;14.57;;
4466;SDS011;2246;42.664;23.278;2023-06-01T06:02:52;26.10;;;14.07;;
4466;SDS011;2246;42.664;23.278;2023-06-01T06:05:18;22.08;;;13.68;;
4466;SDS011;2246;42.664;23.278;2023-06-01T06:07:44;24.92;;;16.25;;
4466;SDS011;2246;42.664;23.278;2023-06-01T06:10:11;28.52;;;14.98;;
4466;SDS011;2246;42.664;23.278;2023-06-01T06:12:37;26.98;;;14.88;;
4466;SDS011;2246;42.664;23.278;2023-06-01T06:15:03;26.05;;;15.82;;
4466;SDS011;2246;42.664;23.278;2023-06-01T06:17:30;25.92;;;15.73;;
4466;SDS011;2246;42.664;23.278;2023-06-01T06:19:56;29.00;;;15.73;;
4466;SDS011;2246;42.664;23.278;2023-06-01T06:22:22;28.23;;;14.98;;
4466;SDS011;2246;42.664;23.278;2023-06-01T06:24:48;27.35;;;16.40;;
4466;SDS011;2246;42.664;23.278;2023-06-01T06:27:14;50.88;;;26.48;;
4466;SDS011;2246;42.664;23.278;2023-06-01T06:29:41;27.10;;;16.20;;
4466;SDS011;2246;42.664;23.278;2023-06-01T06:32:07;29.65;;;15.98;;
4466;SDS011;2246;42.664;23.278;2023-06-01T06:34:33;26.98;;;14.93;;
4466;SDS011;2246;42.664;23.278;2023-06-01T06:37:06;23.35;;;15.35;;
4466;SDS011;2246;42.664;23.278;2023-06-01T06:39:33;30.30;;;17.05;;
4466;SDS011;2246;42.664;23.278;2023-06-01T06:41:59;23.87;;;14.77;;
4466;SDS011;2246;42.664;23.278;2023-06-01T06:44:29;22.30;;;14.13;;
4466;SDS011;2246;42.664;23.278;2023-06-01T06:46:57;25.20;;;16.25;;
4466;SDS011;2246;42.664;23.278;2023-06-01T06:49:23;23.45;;;14.65;;
4466;SDS011;2246;42.664;23.278;2023-06-01T06:51:49;28.60;;;16.48;;
4466;SDS011;2246;42.664;23.278;2023-06-01T06:54:15;28.17;;;16.08;;
4466;SDS011;2246;42.664;23.278;2023-06-01T06:56:41;31.52;;;16.98;;
4466;SDS011;2246;42.664;23.278;2023-06-01T06:59:08;24.33;;;15.18;;
4466;SDS011;2246;42.664;23.278;2023-06-01T07:01:34;22.35;;;14.45;;
4466;SDS011;2246;42.664;23.278;2023-06-01T07:04:03;25.00;;;16.80;;
4466;SDS011;2246;42.664;23.278;2023-06-01T07:06:31;29.17;;;15.00;;
4466;SDS011;2246;42.664;23.278;2023-06-01T07:08:58;21.37;;;14.30;;
4466;SDS011;2246;42.664;23.278;2023-06-01T07:11:24;24.20;;;14.85;;
4466;SDS011;2246;42.664;23.278;2023-06-01T07:13:52;27.92;;;14.20;;
4466;SDS011;2246;42.664;23.278;2023-06-01T07:16:18;27.75;;;13.75;;
4466;SDS011;2246;42.664;23.278;2023-06-01T07:18:44;21.27;;;13.52;;
4466;SDS011;2246;42.664;23.278;2023-06-01T07:21:10;20.80;;;12.77;;
4466;SDS011;2246;42.664;23.278;2023-06-01T07:23:36;20.10;;;12.43;;
4466;SDS011;2246;42.664;23.278;2023-06-01T07:26:02;30.95;;;14.50;;
4466;SDS011;2246;42.664;23.278;2023-06-01T07:28:28;30.33;;;13.40;;
4466;SDS011;2246;42.664;23.278;2023-06-01T07:30:54;22.90;;;12.55;;
4466;SDS011;2246;42.664;23.278;2023-06-01T07:33:20;18.52;;;12.15;;
4466;SDS011;2246;42.664;23.278;2023-06-01T07:35:47;22.58;;;13.98;;
4466;SDS011;2246;42.664;23.278;2023-06-01T07:38:17;24.90;;;13.43;;
4466;SDS011;2246;42.664;23.278;2023-06-01T07:43:20;18.17;;;11.05;;
4466;SDS011;2246;42.664;23.278;2023-06-01T07:45:46;22.13;;;11.07;;
4466;SDS011;2246;42.664;23.278;2023-06-01T07:48:12;27.60;;;13.27;;
4466;SDS011;2246;42.664;23.278;2023-06-01T07:50:38;42.50;;;12.73;;
4466;SDS011;2246;42.664;23.278;2023-06-01T07:53:04;25.58;;;12.95;;
4466;SDS011;2246;42.664;23.278;2023-06-01T07:55:31;19.23;;;13.02;;
4466;SDS011;2246;42.664;23.278;2023-06-01T07:57:57;25.92;;;13.52;;
4466;SDS011;2246;42.664;23.278;2023-06-01T08:00:23;27.77;;;12.85;;
4466;SDS011;2246;42.664;23.278;2023-06-01T08:02:50;22.63;;;13.15;;
4466;SDS011;2246;42.664;23.278;2023-06-01T08:05:16;27.92;;;13.13;;
4466;SDS011;2246;42.664;23.278;2023-06-01T08:07:42;24.58;;;12.70;;
4466;SDS011;2246;42.664;23.278;2023-06-01T08:10:09;29.73;;;14.98;;
4466;SDS011;2246;42.664;23.278;2023-06-01T08:12:35;24.85;;;13.15;;
4466;SDS011;2246;42.664;23.278;2023-06-01T08:15:02;23.45;;;13.23;;
4466;SDS011;2246;42.664;23.278;2023-06-01T08:17:29;20.38;;;12.90;;
4466;SDS011;2246;42.664;23.278;2023-06-01T08:19:55;24.10;;;13.38;;
4466;SDS011;2246;42.664;23.278;2023-06-01T08:22:22;23.48;;;12.88;;
4466;SDS011;2246;42.664;23.278;2023-06-01T08:24:49;23.88;;;13.90;;
4466;SDS011;2246;42.664;23.278;2023-06-01T08:27:21;21.17;;;12.68;;
4466;SDS011;2246;42.664;23.278;2023-06-01T08:29:48;24.05;;;13.20;;
4466;SDS011;2246;42.664;23.278;2023-06-01T08:32:14;22.92;;;14.38;;
4466;SDS011;2246;42.664;23.278;2023-06-01T08:34:42;24.58;;;14.25;;
4466;SDS011;2246;42.664;23.278;2023-06-01T08:37:08;25.02;;;15.02;;
4466;SDS011;2246;42.664;23.278;2023-06-01T08:39:34;28.70;;;14.73;;
4466;SDS011;2246;42.664;23.278;2023-06-01T08:44:37;18.42;;;12.77;;
4466;SDS011;2246;42.664;23.278;2023-06-01T08:47:04;21.02;;;13.40;;
4466;SDS011;2246;42.664;23.278;2023-06-01T08:49:31;21.30;;;13.40;;
4466;SDS011;2246;42.664;23.278;2023-06-01T08:51:58;25.05;;;14.25;;
4466;SDS011;2246;42.664;23.278;2023-06-01T08:54:26;23.85;;;14.27;;
4466;SDS011;2246;42.664;23.278;2023-06-01T08:56:54;31.00;;;13.57;;
4466;SDS011;2246;42.664;23.278;2023-06-01T08:59:20;22.40;;;13.63;;
4466;SDS011;2246;42.664;23.278;2023-06-01T09:01:46;25.40;;;12.75;;
4466;SDS011;2246;42.664;23.278;2023-06-01T09:04:13;22.55;;;14.13;;
4466;SDS011;2246;42.664;23.278;2023-06-01T09:06:41;29.83;;;14.00;;
4466;SDS011;2246;42.664;23.278;2023-06-01T09:09:07;23.92;;;12.32;;
4466;SDS011;2246;42.664;23.278;2023-06-01T09:11:36;23.75;;;13.40;;
4466;SDS011;2246;42.664;23.278;2023-06-01T09:14:04;24.75;;;12.77;;
4466;SDS011;2246;42.664;23.278;2023-06-01T09:16:45;28.60;;;11.70;;
4466;SDS011;2246;42.664;23.278;2023-06-01T09:19:11;23.65;;;12.35;;
4466;SDS011;2246;42.664;23.278;2023-06-01T09:21:37;24.95;;;11.77;;
4466;SDS011;2246;42.664;23.278;2023-06-01T09:24:19;29.48;;;12.82;;
4466;SDS011;2246;42.664;23.278;2023-06-01T09:26:47;22.25;;;11.70;;
4466;SDS011;2246;42.664;23.278;2023-06-01T09:29:14;17.10;;;11.73;;
4466;SDS011;2246;42.664;23.278;2023-06-01T09:34:06;14.70;;;9.90;;
4466;SDS011;2246;42.664;23.278;2023-06-01T09:36:33;20.42;;;10.70;;
4466;SDS011;2246;42.664;23.278;2023-06-01T09:41:55;21.85;;;10.15;;
4466;SDS011;2246;42.664;23.278;2023-06-01T09:44:25;20.00;;;10.38;;
4466;SDS011;2246;42.664;23.278;2023-06-01T09:46:52;19.80;;;8.85;;
4466;SDS011;2246;42.664;23.278;2023-06-01T09:51:49;15.43;;;9.20;;
4466;SDS011;2246;42.664;23.278;2023-06-01T09:54:22;15.88;;;9.20;;
4466;SDS011;2246;42.664;23.278;2023-06-01T09:56:48;17.73;;;7.90;;
4466;SDS011;2246;42.664;23.278;2023-06-01T09:59:14;14.40;;;7.38;;
4466;SDS011;2246;42.664;23.278;2023-06-01T10:01:41;12.18;;;6.47;;
4466;SDS011;2246;42.664;23.278;2023-06-01T10:04:07;14.35;;;6.53;;
4466;SDS011;2246;42.664;23.278;2023-06-01T10:06:35;12.95;;;5.05;;
4466;SDS011;2246;42.664;23.278;2023-06-01T10:09:05;7.70;;;4.63;;
4466;SDS011;2246;42.664;23.278;2023-06-01T10:11:33;13.00;;;5.13;;
4466;SDS011;2246;42.664;23.278;2023-06-01T10:14:00;11.90;;;5.13;;
4466;SDS011;2246;42.664;23.278;2023-06-01T10:16:26;9.95;;;5.75;;
4466;SDS011;2246;42.664;23.278;2023-06-01T10:18:52;9.95;;;5.30;;
4466;SDS011;2246;42.664;23.278;2023-06-01T10:21:18;6.43;;;4.03;;
4466;SDS011;2246;42.664;23.278;2023-06-01T10:23:44;11.30;;;5.05;;
4466;SDS011;2246;42.664;23.278;2023-06-01T10:26:11;8.48;;;4.13;;
4466;SDS011;2246;42.664;23.278;2023-06-01T10:28:39;8.18;;;4.40;;
4466;SDS011;2246;42.664;23.278;2023-06-01T10:33:56;9.45;;;4.85;;
4466;SDS011;2246;42.664;23.278;2023-06-01T10:36:23;5.25;;;3.65;;
4466;SDS011;2246;42.664;23.278;2023-06-01T10:39:08;8.18;;;4.40;;
4466;SDS011;2246;42.664;23.278;2023-06-01T10:41:37;8.15;;;4.85;;
4466;SDS011;2246;42.664;23.278;2023-06-01T10:44:03;8.48;;;4.85;;
4466;SDS011;2246;42.664;23.278;2023-06-01T10:48:58;6.93;;;5.10;;
4466;SDS011;2246;42.664;23.278;2023-06-01T10:51:25;12.55;;;5.30;;
4466;SDS011;2246;42.664;23.278;2023-06-01T11:01:36;11.20;;;6.72;;
4466;SDS011;2246;42.664;23.278;2023-06-01T11:04:02;9.82;;;6.53;;
4466;SDS011;2246;42.664;23.278;2023-06-01T11:06:29;10.27;;;5.85;;
4466;SDS011;2246;42.664;23.278;2023-06-01T11:11:22;8.95;;;5.50;;
4466;SDS011;2246;42.664;23.278;2023-06-01T11:14:05;14.13;;;6.33;;
4466;SDS011;2246;42.664;23.278;2023-06-01T11:16:33;12.98;;;6.10;;
4466;SDS011;2246;42.664;23.278;2023-06-01T11:19:00;10.20;;;5.68;;
4466;SDS011;2246;42.664;23.278;2023-06-01T11:23:54;7.70;;;5.55;;
4466;SDS011;2246;42.664;23.278;2023-06-01T11:26:21;7.47;;;4.47;;
4466;SDS011;2246;42.664;23.278;2023-06-01T11:28:50;7.38;;;5.15;;
4466;SDS011;2246;42.664;23.278;2023-06-01T11:31:16;7.13;;;4.45;;
4466;SDS011;2246;42.664;23.278;2023-06-01T11:33:46;6.20;;;4.22;;
4466;SDS011;2246;42.664;23.278;2023-06-01T11:36:15;16.95;;;10.95;;
4466;SDS011;2246;42.664;23.278;2023-06-01T11:38:42;8.07;;;5.23;;
4466;SDS011;2246;42.664;23.278;2023-06-01T11:41:08;13.05;;;7.38;;
4466;SDS011;2246;42.664;23.278;2023-06-01T11:43:35;11.75;;;6.28;;
4466;SDS011;2246;42.664;23.278;2023-06-01T11:46:05;10.52;;;5.13;;
4466;SDS011;2246;42.664;23.278;2023-06-01T11:48:32;5.38;;;3.50;;
4466;SDS011;2246;42.664;23.278;2023-06-01T11:51:02;7.47;;;4.47;;
4466;SDS011;2246;42.664;23.278;2023-06-01T11:53:29;6.22;;;3.45;;
4466;SDS011;2246;42.664;23.278;2023-06-01T11:55:58;8.15;;;3.83;;
4466;SDS011;2246;42.664;23.278;2023-06-01T12:00:51;6.35;;;3.88;;
4466;SDS011;2246;42.664;23.278;2023-06-01T12:03:17;11.38;;;5.80;;
4466;SDS011;2246;42.664;23.278;2023-06-01T12:05:43;7.00;;;3.90;;
4466;SDS011;2246;42.664;23.278;2023-06-01T12:08:19;6.25;;;4.13;;
4466;SDS011;2246;42.664;23.278;2023-06-01T12:10:46;6.93;;;3.88;;
4466;SDS011;2246;42.664;23.278;2023-06-01T12:13:13;6.63;;;3.88;;
4466;SDS011;2246;42.664;23.278;2023-06-01T12:15:39;7.53;;;3.95;;
4466;SDS011;2246;42.664;23.278;2023-06-01T12:18:05;6.72;;;3.72;;
4466;SDS011;2246;42.664;23.278;2023-06-01T12:20:35;10.10;;;4.10;;
4466;SDS011;2246;42.664;23.278;2023-06-01T12:25:50;8.80;;;4.28;;
4466;SDS011;2246;42.664;23.278;2023-06-01T12:28:16;6.28;;;4.10;;
4466;SDS011;2246;42.664;23.278;2023-06-01T12:30:42;6.35;;;3.70;;
4466;SDS011;2246;42.664;23.278;2023-06-01T12:33:09;5.65;;;3.85;;
4466;SDS011;2246;42.664;23.278;2023-06-01T12:35:54;8.77;;;3.80;;
4466;SDS011;2246;42.664;23.278;2023-06-01T12:38:21;8.13;;;3.92;;
4466;SDS011;2246;42.664;23.278;2023-06-01T12:40:47;10.98;;;3.83;;
4466;SDS011;2246;42.664;23.278;2023-06-01T12:43:32;11.63;;;4.68;;
4466;SDS011;2246;42.664;23.278;2023-06-01T12:45:59;12.10;;;5.15;;
4466;SDS011;2246;42.664;23.278;2023-06-01T12:48:32;6.80;;;4.25;;
4466;SDS011;2246;42.664;23.278;2023-06-01T12:50:58;7.68;;;4.07;;
4466;SDS011;2246;42.664;23.278;2023-06-01T12:53:24;6.70;;;4.63;;
4466;SDS011;2246;42.664;23.278;2023-06-01T12:55:51;9.35;;;4.20;;
4466;SDS011;2246;42.664;23.278;2023-06-01T12:58:17;7.03;;;4.43;;
4466;SDS011;2246;42.664;23.278;2023-06-01T13:00:43;8.30;;;4.30;;
4466;SDS011;2246;42.664;23.278;2023-06-01T13:03:09;12.40;;;4.35;;
4466;SDS011;2246;42.664;23.278;2023-06-01T13:05:35;11.10;;;4.43;;
4466;SDS011;2246;42.664;23.278;2023-06-01T13:08:02;8.27;;;3.70;;
4466;SDS011;2246;42.664;23.278;2023-06-01T13:10:28;6.95;;;4.03;;
4466;SDS011;2246;42.664;23.278;2023-06-01T13:12:54;7.40;;;3.85;;
4466;SDS011;2246;42.664;23.278;2023-06-01T13:15:21;6.82;;;4.03;;
4466;SDS011;2246;42.664;23.278;2023-06-01T13:17:47;5.00;;;3.22;;
4466;SDS011;2246;42.664;23.278;2023-06-01T13:22:48;4.15;;;2.80;;
4466;SDS011;2246;42.664;23.278;2023-06-01T13:25:15;6.28;;;2.55;;
4466;SDS011;2246;42.664;23.278;2023-06-01T13:27:41;7.57;;;2.40;;
4466;SDS011;2246;42.664;23.278;2023-06-01T13:30:07;3.13;;;1.80;;
4466;SDS011;2246;42.664;23.278;2023-06-01T13:32:33;1.85;;;1.50;;
4466;SDS011;2246;42.664;23.278;2023-06-01T13:35:00;4.60;;;1.58;;
4466;SDS011;2246;42.664;23.278;2023-06-01T13:37:26;2.13;;;1.70;;
4466;SDS011;2246;42.664;23.278;2023-06-01T13:39:52;6.28;;;1.73;;
4466;SDS011;2246;42.664;23.278;2023-06-01T13:42:18;5.75;;;1.50;;
4466;SDS011;2246;42.664;23.278;2023-06-01T13:44:44;2.67;;;1.60;;
4466;SDS011;2246;42.664;23.278;2023-06-01T13:47:14;6.32;;;1.42;;
4466;SDS011;2246;42.664;23.278;2023-06-01T13:49:43;3.95;;;2.08;;
4466;SDS011;2246;42.664;23.278;2023-06-01T13:52:10;2.30;;;1.95;;
4466;SDS011;2246;42.664;23.278;2023-06-01T13:54:36;5.07;;;2.55;;
4466;SDS011;2246;42.664;23.278;2023-06-01T13:57:03;3.22;;;1.73;;
4466;SDS011;2246;42.664;23.278;2023-06-01T14:01:57;3.63;;;2.25;;
4466;SDS011;2246;42.664;23.278;2023-06-01T14:04:23;2.83;;;1.95;;
4466;SDS011;2246;42.664;23.278;2023-06-01T14:06:49;3.60;;;2.08;;
4466;SDS011;2246;42.664;23.278;2023-06-01T14:09:15;7.80;;;2.40;;
4466;SDS011;2246;42.664;23.278;2023-06-01T14:11:41;3.92;;;2.70;;
4466;SDS011;2246;42.664;23.278;2023-06-01T14:14:07;7.30;;;2.90;;
4466;SDS011;2246;42.664;23.278;2023-06-01T14:16:33;3.85;;;3.00;;
4466;SDS011;2246;42.664;23.278;2023-06-01T14:18:59;4.88;;;3.20;;
4466;SDS011;2246;42.664;23.278;2023-06-01T14:21:26;6.43;;;3.15;;
4466;SDS011;2246;42.664;23.278;2023-06-01T14:26:19;5.30;;;3.63;;
4466;SDS011;2246;42.664;23.278;2023-06-01T14:28:46;5.65;;;3.13;;
4466;SDS011;2246;42.664;23.278;2023-06-01T14:31:12;5.00;;;3.58;;
4466;SDS011;2246;42.664;23.278;2023-06-01T14:33:38;6.30;;;2.80;;
4466;SDS011;2246;42.664;23.278;2023-06-01T14:36:04;6.63;;;4.00;;
4466;SDS011;2246;42.664;23.278;2023-06-01T14:38:31;11.55;;;6.25;;
4466;SDS011;2246;42.664;23.278;2023-06-01T14:40:57;8.13;;;4.90;;
4466;SDS011;2246;42.664;23.278;2023-06-01T14:43:23;11.60;;;4.78;;
4466;SDS011;2246;42.664;23.278;2023-06-01T14:45:49;17.35;;;6.80;;
4466;SDS011;2246;42.664;23.278;2023-06-01T14:48:15;15.20;;;7.22;;
4466;SDS011;2246;42.664;23.278;2023-06-01T14:50:41;39.58;;;15.95;;
4466;SDS011;2246;42.664;23.278;2023-06-01T14:53:07;22.15;;;9.77;;
4466;SDS011;2246;42.664;23.278;2023-06-01T14:55:33;102.95;;;35.65;;
4466;SDS011;2246;42.664;23.278;2023-06-01T14:57:59;38.40;;;13.88;;
4466;SDS011;2246;42.664;23.278;2023-06-01T15:00:27;49.05;;;20.17;;
4466;SDS011;2246;42.664;23.278;2023-06-01T15:02:53;41.63;;;14.95;;
4466;SDS011;2246;42.664;23.278;2023-06-01T15:05:19;35.90;;;14.82;;
4466;SDS011;2246;42.664;23.278;2023-06-01T15:07:46;21.38;;;9.77;;
4466;SDS011;2246;42.664;23.278;2023-06-01T15:10:12;31.40;;;12.15;;
4466;SDS011;2246;42.664;23.278;2023-06-01T15:12:38;26.13;;;10.20;;
4466;SDS011;2246;42.664;23.278;2023-06-01T15:15:04;18.27;;;6.93;;
4466;SDS011;2246;42.664;23.278;2023-06-01T15:17:30;21.85;;;9.88;;
4466;SDS011;2246;42.664;23.278;2023-06-01T15:19:57;17.42;;;6.95;;
4466;SDS011;2246;42.664;23.278;2023-06-01T15:22:23;20.25;;;9.25;;
4466;SDS011;2246;42.664;23.278;2023-06-01T15:24:49;15.27;;;7.75;;
4466;SDS011;2246;42.664;23.278;2023-06-01T15:27:15;28.80;;;12.45;;
4466;SDS011;2246;42.664;23.278;2023-06-01T15:29:41;33.25;;;13.32;;
4466;SDS011;2246;42.664;23.278;2023-06-01T15:32:07;20.80;;;9.00;;
4466;SDS011;2246;42.664;23.278;2023-06-01T15:34:33;19.60;;;9.90;;
4466;SDS011;2246;42.664;23.278;2023-06-01T15:36:59;18.80;;;9.23;;
4466;SDS011;2246;42.664;23.278;2023-06-01T15:39:26;12.50;;;6.30;;
4466;SDS011;2246;42.664;23.278;2023-06-01T15:41:52;13.48;;;5.65;;